sensor_id;sensor_type;location;lat;lon;timestamp;temperature;humidity
27795;DHT22;15176;50.844;4.412;2022-12-18T00:00:42;10.40;68.30
27795;DHT22;15176;50.844;4.412;2022-12-18T00:03:08;10.10;67.20
27795;DHT22;15176;50.844;4.412;2022-12-18T00:05:35;9.70;69.20
27795;DHT22;15176;50.844;4.412;2022-12-18T00:08:00;9.60;71.10
27795;DHT22;15176;50.844;4.412;2022-12-18T00:10:27;10.00;71.10
27795;DHT22;15176;50.844;4.412;2022-12-18T00:12:53;10.20;70.40
27795;DHT22;15176;50.844;4.412;2022-12-18T00:15:19;10.40;68.60
27795;DHT22;15176;50.844;4.412;2022-12-18T00:17:44;10.50;67.80
27795;DHT22;15176;50.844;4.412;2022-12-18T00:20:10;10.10;67.20
27795;DHT22;15176;50.844;4.412;2022-12-18T00:22:36;10.00;67.80
27795;DHT22;15176;50.844;4.412;2022-12-18T00:25:02;9.90;68.00
27795;DHT22;15176;50.844;4.412;2022-12-18T00:27:28;9.90;70.20
27795;DHT22;15176;50.844;4.412;2022-12-18T00:29:53;10.20;68.50
27795;DHT22;15176;50.844;4.412;2022-12-18T00:32:19;10.40;70.30
27795;DHT22;15176;50.844;4.412;2022-12-18T00:34:45;10.70;68.30
27795;DHT22;15176;50.844;4.412;2022-12-18T00:37:10;10.90;69.40
27795;DHT22;15176;50.844;4.412;2022-12-18T00:39:36;10.60;65.80
27795;DHT22;15176;50.844;4.412;2022-12-18T00:42:02;10.80;67.90
27795;DHT22;15176;50.844;4.412;2022-12-18T00:44:47;10.60;65.70
27795;DHT22;15176;50.844;4.412;2022-12-18T00:47:13;10.70;65.70
27795;DHT22;15176;50.844;4.412;2022-12-18T00:49:39;10.30;64.90
27795;DHT22;15176;50.844;4.412;2022-12-18T00:52:04;10.30;68.00
27795;DHT22;15176;50.844;4.412;2022-12-18T00:54:30;10.50;66.70
27795;DHT22;15176;50.844;4.412;2022-12-18T00:56:56;10.30;64.90
27795;DHT22;15176;50.844;4.412;2022-12-18T00:59:21;9.30;61.50
27795;DHT22;15176;50.844;4.412;2022-12-18T01:01:47;9.70;69.80
27795;DHT22;15176;50.844;4.412;2022-12-18T01:04:13;10.30;68.80
27795;DHT22;15176;50.844;4.412;2022-12-18T01:06:40;10.60;65.30
27795;DHT22;15176;50.844;4.412;2022-12-18T01:09:05;10.90;67.80
27795;DHT22;15176;50.844;4.412;2022-12-18T01:11:31;11.00;66.50
27795;DHT22;15176;50.844;4.412;2022-12-18T01:14:00;11.30;62.80
27795;DHT22;15176;50.844;4.412;2022-12-18T01:16:25;11.00;61.00
27795;DHT22;15176;50.844;4.412;2022-12-18T01:18:52;10.80;61.30
27795;DHT22;15176;50.844;4.412;2022-12-18T01:21:19;11.00;68.60
27795;DHT22;15176;50.844;4.412;2022-12-18T01:23:45;11.10;65.30
27795;DHT22;15176;50.844;4.412;2022-12-18T01:26:15;11.10;60.70
27795;DHT22;15176;50.844;4.412;2022-12-18T01:28:43;11.00;63.20
27795;DHT22;15176;50.844;4.412;2022-12-18T01:31:16;11.00;62.40
27795;DHT22;15176;50.844;4.412;2022-12-18T01:33:42;11.00;65.70
27795;DHT22;15176;50.844;4.412;2022-12-18T01:36:13;10.50;64.70
27795;DHT22;15176;50.844;4.412;2022-12-18T01:38:39;10.50;64.50
27795;DHT22;15176;50.844;4.412;2022-12-18T01:41:05;10.70;64.60
27795;DHT22;15176;50.844;4.412;2022-12-18T01:43:52;10.90;65.50
27795;DHT22;15176;50.844;4.412;2022-12-18T01:46:20;11.00;63.50
27795;DHT22;15176;50.844;4.412;2022-12-18T01:48:53;11.00;62.30
27795;DHT22;15176;50.844;4.412;2022-12-18T01:51:20;10.70;62.10
27795;DHT22;15176;50.844;4.412;2022-12-18T01:53:47;10.70;62.40
27795;DHT22;15176;50.844;4.412;2022-12-18T01:56:17;10.60;63.50
27795;DHT22;15176;50.844;4.412;2022-12-18T01:59:04;10.40;61.50
27795;DHT22;15176;50.844;4.412;2022-12-18T02:01:32;10.40;63.30
27795;DHT22;15176;50.844;4.412;2022-12-18T02:04:21;10.60;63.80
27795;DHT22;15176;50.844;4.412;2022-12-18T02:06:53;10.60;63.70
27795;DHT22;15176;50.844;4.412;2022-12-18T02:09:28;10.60;63.30
27795;DHT22;15176;50.844;4.412;2022-12-18T02:12:10;10.60;61.60
27795;DHT22;15176;50.844;4.412;2022-12-18T02:15:00;10.70;64.30
27795;DHT22;15176;50.844;4.412;2022-12-18T02:17:42;10.60;63.80
27795;DHT22;15176;50.844;4.412;2022-12-18T02:28:00;9.00;62.00
27795;DHT22;15176;50.844;4.412;2022-12-18T02:30:30;8.30;64.10
27795;DHT22;15176;50.844;4.412;2022-12-18T02:32:57;8.70;66.00
27795;DHT22;15176;50.844;4.412;2022-12-18T02:35:27;9.00;67.50
27795;DHT22;15176;50.844;4.412;2022-12-18T02:37:54;9.30;65.70
27795;DHT22;15176;50.844;4.412;2022-12-18T02:40:22;9.40;64.20
27795;DHT22;15176;50.844;4.412;2022-12-18T02:42:49;9.50;65.90
27795;DHT22;15176;50.844;4.412;2022-12-18T02:45:14;9.40;63.50
27795;DHT22;15176;50.844;4.412;2022-12-18T02:47:42;9.30;64.90
27795;DHT22;15176;50.844;4.412;2022-12-18T02:59:00;9.10;62.90
27795;DHT22;15176;50.844;4.412;2022-12-18T03:01:50;8.80;64.80
27795;DHT22;15176;50.844;4.412;2022-12-18T03:04:26;9.20;67.60
27795;DHT22;15176;50.844;4.412;2022-12-18T03:06:57;9.40;64.30
27795;DHT22;15176;50.844;4.412;2022-12-18T03:09:33;9.20;64.20
27795;DHT22;15176;50.844;4.412;2022-12-18T03:12:07;9.10;64.30
27795;DHT22;15176;50.844;4.412;2022-12-18T03:15:10;9.30;66.30
27795;DHT22;15176;50.844;4.412;2022-12-18T03:17:40;9.50;64.80
27795;DHT22;15176;50.844;4.412;2022-12-18T03:20:12;9.30;66.20
27795;DHT22;15176;50.844;4.412;2022-12-18T03:22:38;9.30;65.50
27795;DHT22;15176;50.844;4.412;2022-12-18T03:25:09;9.50;65.40
27795;DHT22;15176;50.844;4.412;2022-12-18T03:27:40;9.80;65.00
27795;DHT22;15176;50.844;4.412;2022-12-18T03:30:10;9.90;65.80
27795;DHT22;15176;50.844;4.412;2022-12-18T03:35:15;9.40;64.30
27795;DHT22;15176;50.844;4.412;2022-12-18T03:37:43;9.50;63.90
27795;DHT22;15176;50.844;4.412;2022-12-18T03:40:09;9.40;61.50
27795;DHT22;15176;50.844;4.412;2022-12-18T03:45:34;8.50;60.70
27795;DHT22;15176;50.844;4.412;2022-12-18T03:48:05;8.00;66.00
27795;DHT22;15176;50.844;4.412;2022-12-18T03:56:02;7.80;66.70
27795;DHT22;15176;50.844;4.412;2022-12-18T03:58:31;8.60;69.20
27795;DHT22;15176;50.844;4.412;2022-12-18T04:01:01;9.10;65.90
27795;DHT22;15176;50.844;4.412;2022-12-18T04:03:29;9.10;64.80
27795;DHT22;15176;50.844;4.412;2022-12-18T04:05:59;9.20;65.00
27795;DHT22;15176;50.844;4.412;2022-12-18T04:08:25;9.30;64.80
27795;DHT22;15176;50.844;4.412;2022-12-18T04:10:51;9.50;65.40
27795;DHT22;15176;50.844;4.412;2022-12-18T04:13:33;9.20;63.10
27795;DHT22;15176;50.844;4.412;2022-12-18T04:16:00;9.40;64.60
27795;DHT22;15176;50.844;4.412;2022-12-18T04:18:26;9.20;60.50
27795;DHT22;15176;50.844;4.412;2022-12-18T04:20:52;9.00;62.10
27795;DHT22;15176;50.844;4.412;2022-12-18T04:23:17;9.30;65.50
27795;DHT22;15176;50.844;4.412;2022-12-18T04:25:43;9.40;64.90
27795;DHT22;15176;50.844;4.412;2022-12-18T04:28:08;9.40;63.80
27795;DHT22;15176;50.844;4.412;2022-12-18T04:30:34;9.60;63.90
27795;DHT22;15176;50.844;4.412;2022-12-18T04:33:00;9.70;62.80
27795;DHT22;15176;50.844;4.412;2022-12-18T04:35:26;9.60;62.20
27795;DHT22;15176;50.844;4.412;2022-12-18T04:37:51;9.50;61.60
27795;DHT22;15176;50.844;4.412;2022-12-18T04:40:17;9.70;62.70
27795;DHT22;15176;50.844;4.412;2022-12-18T04:42:43;9.60;62.50
27795;DHT22;15176;50.844;4.412;2022-12-18T04:45:08;9.50;62.80
27795;DHT22;15176;50.844;4.412;2022-12-18T04:47:34;9.60;61.60
27795;DHT22;15176;50.844;4.412;2022-12-18T04:50:00;9.60;61.80
27795;DHT22;15176;50.844;4.412;2022-12-18T04:52:25;9.20;60.30
27795;DHT22;15176;50.844;4.412;2022-12-18T04:54:51;9.20;63.20
27795;DHT22;15176;50.844;4.412;2022-12-18T04:57:17;9.30;62.60
27795;DHT22;15176;50.844;4.412;2022-12-18T04:59:45;9.30;62.70
27795;DHT22;15176;50.844;4.412;2022-12-18T05:02:11;9.20;62.00
27795;DHT22;15176;50.844;4.412;2022-12-18T05:04:36;9.20;62.80
27795;DHT22;15176;50.844;4.412;2022-12-18T05:07:02;9.00;60.70
27795;DHT22;15176;50.844;4.412;2022-12-18T05:09:28;9.00;63.50
27795;DHT22;15176;50.844;4.412;2022-12-18T05:11:53;9.30;63.90
27795;DHT22;15176;50.844;4.412;2022-12-18T05:14:19;9.40;62.60
27795;DHT22;15176;50.844;4.412;2022-12-18T05:16:45;9.20;63.10
27795;DHT22;15176;50.844;4.412;2022-12-18T05:19:11;9.10;63.60
27795;DHT22;15176;50.844;4.412;2022-12-18T05:21:37;9.20;63.50
27795;DHT22;15176;50.844;4.412;2022-12-18T05:24:03;9.50;63.70
27795;DHT22;15176;50.844;4.412;2022-12-18T05:26:28;9.50;61.70
27795;DHT22;15176;50.844;4.412;2022-12-18T05:28:57;9.10;59.60
27795;DHT22;15176;50.844;4.412;2022-12-18T05:31:23;8.80;61.40
27795;DHT22;15176;50.844;4.412;2022-12-18T05:33:48;8.80;65.30
27795;DHT22;15176;50.844;4.412;2022-12-18T05:36:14;8.40;63.00
27795;DHT22;15176;50.844;4.412;2022-12-18T05:38:40;8.60;67.90
27795;DHT22;15176;50.844;4.412;2022-12-18T05:41:07;9.10;64.90
27795;DHT22;15176;50.844;4.412;2022-12-18T05:43:35;9.00;63.10
27795;DHT22;15176;50.844;4.412;2022-12-18T05:46:06;9.00;63.10
27795;DHT22;15176;50.844;4.412;2022-12-18T05:48:33;9.00;62.30
27795;DHT22;15176;50.844;4.412;2022-12-18T05:51:04;8.80;64.50
27795;DHT22;15176;50.844;4.412;2022-12-18T05:53:31;8.90;64.50
27795;DHT22;15176;50.844;4.412;2022-12-18T05:56:01;9.20;63.80
27795;DHT22;15176;50.844;4.412;2022-12-18T05:58:27;9.60;61.90
27795;DHT22;15176;50.844;4.412;2022-12-18T06:00:52;9.70;61.90
27795;DHT22;15176;50.844;4.412;2022-12-18T06:03:18;9.70;60.90
27795;DHT22;15176;50.844;4.412;2022-12-18T06:05:45;9.60;60.50
27795;DHT22;15176;50.844;4.412;2022-12-18T06:08:12;9.60;60.90
27795;DHT22;15176;50.844;4.412;2022-12-18T06:10:38;9.30;61.00
27795;DHT22;15176;50.844;4.412;2022-12-18T06:13:07;9.40;61.30
27795;DHT22;15176;50.844;4.412;2022-12-18T06:15:35;9.50;61.90
27795;DHT22;15176;50.844;4.412;2022-12-18T06:18:01;9.40;62.40
27795;DHT22;15176;50.844;4.412;2022-12-18T06:20:32;9.50;58.90
27795;DHT22;15176;50.844;4.412;2022-12-18T06:22:57;9.40;60.10
27795;DHT22;15176;50.844;4.412;2022-12-18T06:25:23;9.30;60.70
27795;DHT22;15176;50.844;4.412;2022-12-18T06:27:49;9.30;61.60
27795;DHT22;15176;50.844;4.412;2022-12-18T06:30:15;9.50;62.10
27795;DHT22;15176;50.844;4.412;2022-12-18T06:32:41;9.40;61.10
27795;DHT22;15176;50.844;4.412;2022-12-18T06:35:07;9.70;63.30
27795;DHT22;15176;50.844;4.412;2022-12-18T06:37:33;9.70;59.20
27795;DHT22;15176;50.844;4.412;2022-12-18T06:39:58;9.60;59.20
27795;DHT22;15176;50.844;4.412;2022-12-18T06:42:26;9.70;61.10
27795;DHT22;15176;50.844;4.412;2022-12-18T06:44:52;9.70;63.50
27795;DHT22;15176;50.844;4.412;2022-12-18T06:47:18;9.70;61.70
27795;DHT22;15176;50.844;4.412;2022-12-18T06:49:43;9.20;59.90
27795;DHT22;15176;50.844;4.412;2022-12-18T06:52:09;9.50;63.90
27795;DHT22;15176;50.844;4.412;2022-12-18T06:54:35;8.50;59.50
27795;DHT22;15176;50.844;4.412;2022-12-18T06:57:01;8.30;59.40
27795;DHT22;15176;50.844;4.412;2022-12-18T06:59:26;8.50;62.30
27795;DHT22;15176;50.844;4.412;2022-12-18T07:01:52;9.20;62.10
27795;DHT22;15176;50.844;4.412;2022-12-18T07:04:18;9.20;60.10
27795;DHT22;15176;50.844;4.412;2022-12-18T07:06:45;9.80;62.90
27795;DHT22;15176;50.844;4.412;2022-12-18T07:09:10;9.70;60.60
27795;DHT22;15176;50.844;4.412;2022-12-18T07:11:36;9.60;61.60
27795;DHT22;15176;50.844;4.412;2022-12-18T07:14:01;9.50;60.10
27795;DHT22;15176;50.844;4.412;2022-12-18T07:16:27;9.50;62.60
27795;DHT22;15176;50.844;4.412;2022-12-18T07:18:56;9.30;60.20
27795;DHT22;15176;50.844;4.412;2022-12-18T07:21:23;9.20;62.60
27795;DHT22;15176;50.844;4.412;2022-12-18T07:23:49;9.00;60.60
27795;DHT22;15176;50.844;4.412;2022-12-18T07:26:18;8.20;59.40
27795;DHT22;15176;50.844;4.412;2022-12-18T07:28:43;7.70;59.00
27795;DHT22;15176;50.844;4.412;2022-12-18T07:31:15;6.90;63.10
27795;DHT22;15176;50.844;4.412;2022-12-18T07:33:41;6.80;66.40
27795;DHT22;15176;50.844;4.412;2022-12-18T07:36:08;6.70;67.50
27795;DHT22;15176;50.844;4.412;2022-12-18T07:38:35;7.30;70.50
27795;DHT22;15176;50.844;4.412;2022-12-18T07:41:07;8.40;69.80
27795;DHT22;15176;50.844;4.412;2022-12-18T07:43:34;8.90;66.50
27795;DHT22;15176;50.844;4.412;2022-12-18T07:46:00;9.00;63.00
27795;DHT22;15176;50.844;4.412;2022-12-18T07:48:26;8.90;61.90
27795;DHT22;15176;50.844;4.412;2022-12-18T07:50:52;8.90;64.50
27795;DHT22;15176;50.844;4.412;2022-12-18T07:53:17;9.10;61.70
27795;DHT22;15176;50.844;4.412;2022-12-18T07:55:43;9.10;62.50
27795;DHT22;15176;50.844;4.412;2022-12-18T07:58:09;8.80;58.30
27795;DHT22;15176;50.844;4.412;2022-12-18T08:00:36;8.80;64.20
27795;DHT22;15176;50.844;4.412;2022-12-18T08:03:02;8.30;60.20
27795;DHT22;15176;50.844;4.412;2022-12-18T08:05:27;8.80;60.40
27795;DHT22;15176;50.844;4.412;2022-12-18T08:07:53;9.10;61.70
27795;DHT22;15176;50.844;4.412;2022-12-18T08:10:20;8.40;59.90
27795;DHT22;15176;50.844;4.412;2022-12-18T08:12:48;8.80;63.70
27795;DHT22;15176;50.844;4.412;2022-12-18T08:15:14;9.30;59.90
27795;DHT22;15176;50.844;4.412;2022-12-18T08:17:39;7.90;60.90
27795;DHT22;15176;50.844;4.412;2022-12-18T08:20:05;7.80;62.90
27795;DHT22;15176;50.844;4.412;2022-12-18T08:22:34;8.50;65.80
27795;DHT22;15176;50.844;4.412;2022-12-18T08:25:01;8.50;63.80
27795;DHT22;15176;50.844;4.412;2022-12-18T08:27:26;9.00;60.70
27795;DHT22;15176;50.844;4.412;2022-12-18T08:29:52;9.20;58.60
27795;DHT22;15176;50.844;4.412;2022-12-18T08:32:18;9.00;61.40
27795;DHT22;15176;50.844;4.412;2022-12-18T08:34:44;9.20;61.60
27795;DHT22;15176;50.844;4.412;2022-12-18T08:37:09;8.80;59.80
27795;DHT22;15176;50.844;4.412;2022-12-18T08:39:35;9.00;62.20
27795;DHT22;15176;50.844;4.412;2022-12-18T08:42:01;9.60;62.60
27795;DHT22;15176;50.844;4.412;2022-12-18T08:44:45;10.00;60.80
27795;DHT22;15176;50.844;4.412;2022-12-18T08:47:12;9.90;58.40
27795;DHT22;15176;50.844;4.412;2022-12-18T08:49:38;9.90;55.90
27795;DHT22;15176;50.844;4.412;2022-12-18T08:52:03;9.30;57.40
27795;DHT22;15176;50.844;4.412;2022-12-18T08:54:30;9.10;60.90
27795;DHT22;15176;50.844;4.412;2022-12-18T08:56:58;9.10;58.80
27795;DHT22;15176;50.844;4.412;2022-12-18T08:59:23;9.10;58.70
27795;DHT22;15176;50.844;4.412;2022-12-18T09:01:49;8.20;62.80
27795;DHT22;15176;50.844;4.412;2022-12-18T09:04:14;7.20;62.90
27795;DHT22;15176;50.844;4.412;2022-12-18T09:06:40;7.50;62.80
27795;DHT22;15176;50.844;4.412;2022-12-18T09:09:06;8.20;65.60
27795;DHT22;15176;50.844;4.412;2022-12-18T09:11:32;8.80;64.10
27795;DHT22;15176;50.844;4.412;2022-12-18T09:14:00;9.70;65.50
27795;DHT22;15176;50.844;4.412;2022-12-18T09:16:28;9.50;58.30
27795;DHT22;15176;50.844;4.412;2022-12-18T09:18:57;9.30;63.20
27795;DHT22;15176;50.844;4.412;2022-12-18T09:21:28;9.70;61.20
27795;DHT22;15176;50.844;4.412;2022-12-18T09:23:55;9.90;59.80
27795;DHT22;15176;50.844;4.412;2022-12-18T09:26:22;9.90;57.30
27795;DHT22;15176;50.844;4.412;2022-12-18T09:28:48;10.10;59.70
27795;DHT22;15176;50.844;4.412;2022-12-18T09:31:16;8.60;57.80
27795;DHT22;15176;50.844;4.412;2022-12-18T09:33:42;8.00;63.20
27795;DHT22;15176;50.844;4.412;2022-12-18T09:36:10;7.90;60.20
27795;DHT22;15176;50.844;4.412;2022-12-18T09:38:37;8.50;64.60
27795;DHT22;15176;50.844;4.412;2022-12-18T09:43:57;8.80;59.80
27795;DHT22;15176;50.844;4.412;2022-12-18T09:46:32;9.30;65.00
27795;DHT22;15176;50.844;4.412;2022-12-18T09:49:02;9.70;58.80
27795;DHT22;15176;50.844;4.412;2022-12-18T09:51:35;9.40;63.30
27795;DHT22;15176;50.844;4.412;2022-12-18T09:54:07;10.10;60.00
27795;DHT22;15176;50.844;4.412;2022-12-18T09:56:40;10.40;58.50
27795;DHT22;15176;50.844;4.412;2022-12-18T09:59:18;10.10;57.70
27795;DHT22;15176;50.844;4.412;2022-12-18T10:01:44;9.00;62.90
27795;DHT22;15176;50.844;4.412;2022-12-18T10:04:10;9.70;60.70
27795;DHT22;15176;50.844;4.412;2022-12-18T10:07:10;8.90;59.50
27795;DHT22;15176;50.844;4.412;2022-12-18T10:10:06;8.20;60.40
27795;DHT22;15176;50.844;4.412;2022-12-18T10:15:14;8.60;59.00
27795;DHT22;15176;50.844;4.412;2022-12-18T10:17:54;9.10;64.60
27795;DHT22;15176;50.844;4.412;2022-12-18T10:20:43;8.30;60.50
27795;DHT22;15176;50.844;4.412;2022-12-18T10:28:20;8.40;59.40
27795;DHT22;15176;50.844;4.412;2022-12-18T10:30:47;8.60;62.40
27795;DHT22;15176;50.844;4.412;2022-12-18T10:33:21;9.40;63.70
27795;DHT22;15176;50.844;4.412;2022-12-18T10:35:49;9.60;59.20
27795;DHT22;15176;50.844;4.412;2022-12-18T10:41:04;9.80;59.30
27795;DHT22;15176;50.844;4.412;2022-12-18T10:43:36;9.10;61.00
27795;DHT22;15176;50.844;4.412;2022-12-18T10:46:11;8.90;59.80
27795;DHT22;15176;50.844;4.412;2022-12-18T10:48:47;9.30;62.10
27795;DHT22;15176;50.844;4.412;2022-12-18T10:54:14;8.90;58.80
27795;DHT22;15176;50.844;4.412;2022-12-18T10:56:39;9.10;62.50
27795;DHT22;15176;50.844;4.412;2022-12-18T10:59:09;9.10;59.70
27795;DHT22;15176;50.844;4.412;2022-12-18T11:01:49;9.40;60.60
27795;DHT22;15176;50.844;4.412;2022-12-18T11:04:26;9.20;62.20
27795;DHT22;15176;50.844;4.412;2022-12-18T11:07:01;9.20;61.70
27795;DHT22;15176;50.844;4.412;2022-12-18T11:09:29;8.80;59.50
27795;DHT22;15176;50.844;4.412;2022-12-18T11:11:59;8.00;66.40
27795;DHT22;15176;50.844;4.412;2022-12-18T11:14:48;9.20;64.70
27795;DHT22;15176;50.844;4.412;2022-12-18T11:17:19;10.30;64.30
27795;DHT22;15176;50.844;4.412;2022-12-18T11:19:53;8.80;59.00
27795;DHT22;15176;50.844;4.412;2022-12-18T11:22:23;9.20;62.50
27795;DHT22;15176;50.844;4.412;2022-12-18T11:25:16;9.50;61.50
27795;DHT22;15176;50.844;4.412;2022-12-18T11:27:49;9.40;63.00
27795;DHT22;15176;50.844;4.412;2022-12-18T11:30:34;9.60;62.50
27795;DHT22;15176;50.844;4.412;2022-12-18T11:33:26;10.50;62.50
27795;DHT22;15176;50.844;4.412;2022-12-18T11:35:57;10.10;59.40
27795;DHT22;15176;50.844;4.412;2022-12-18T11:38:48;9.70;58.70
27795;DHT22;15176;50.844;4.412;2022-12-18T11:41:37;9.20;61.10
27795;DHT22;15176;50.844;4.412;2022-12-18T11:44:27;10.10;65.00
27795;DHT22;15176;50.844;4.412;2022-12-18T11:49:52;10.90;56.50
27795;DHT22;15176;50.844;4.412;2022-12-18T11:52:27;10.00;57.10
27795;DHT22;15176;50.844;4.412;2022-12-18T11:54:58;8.90;60.00
27795;DHT22;15176;50.844;4.412;2022-12-18T12:00:20;8.80;61.90
27795;DHT22;15176;50.844;4.412;2022-12-18T12:08:54;9.20;65.10
27795;DHT22;15176;50.844;4.412;2022-12-18T12:11:36;9.80;60.60
27795;DHT22;15176;50.844;4.412;2022-12-18T12:14:27;10.00;59.00
27795;DHT22;15176;50.844;4.412;2022-12-18T12:17:37;9.50;57.80
27795;DHT22;15176;50.844;4.412;2022-12-18T12:23:01;9.50;65.90
27795;DHT22;15176;50.844;4.412;2022-12-18T12:25:52;9.70;58.80
27795;DHT22;15176;50.844;4.412;2022-12-18T12:39:32;8.20;63.80
27795;DHT22;15176;50.844;4.412;2022-12-18T12:42:00;7.70;63.50
27795;DHT22;15176;50.844;4.412;2022-12-18T12:44:51;8.10;66.10
27795;DHT22;15176;50.844;4.412;2022-12-18T12:49:50;8.60;64.40
27795;DHT22;15176;50.844;4.412;2022-12-18T12:54:54;8.20;65.60
27795;DHT22;15176;50.844;4.412;2022-12-18T12:57:34;8.30;64.50
27795;DHT22;15176;50.844;4.412;2022-12-18T13:00:03;8.50;65.70
27795;DHT22;15176;50.844;4.412;2022-12-18T13:02:52;8.60;67.20
27795;DHT22;15176;50.844;4.412;2022-12-18T13:08:51;9.30;62.60
27795;DHT22;15176;50.844;4.412;2022-12-18T13:14:33;8.70;62.50
27795;DHT22;15176;50.844;4.412;2022-12-18T13:19:55;8.20;65.70
27795;DHT22;15176;50.844;4.412;2022-12-18T13:22:33;8.80;66.00
27795;DHT22;15176;50.844;4.412;2022-12-18T13:25:00;8.60;64.30
27795;DHT22;15176;50.844;4.412;2022-12-18T13:38:37;7.60;69.00
27795;DHT22;15176;50.844;4.412;2022-12-18T13:43:54;7.10;70.70
27795;DHT22;15176;50.844;4.412;2022-12-18T13:49:04;8.50;66.20
27795;DHT22;15176;50.844;4.412;2022-12-18T13:51:33;7.80;65.90
27795;DHT22;15176;50.844;4.412;2022-12-18T13:54:02;8.30;67.40
27795;DHT22;15176;50.844;4.412;2022-12-18T13:56:33;8.30;66.00
27795;DHT22;15176;50.844;4.412;2022-12-18T14:01:56;8.60;65.70
27795;DHT22;15176;50.844;4.412;2022-12-18T14:04:31;7.80;68.10
27795;DHT22;15176;50.844;4.412;2022-12-18T14:09:37;7.60;70.40
27795;DHT22;15176;50.844;4.412;2022-12-18T14:12:03;7.20;70.20
27795;DHT22;15176;50.844;4.412;2022-12-18T14:14:49;7.20;69.10
27795;DHT22;15176;50.844;4.412;2022-12-18T14:17:18;6.80;70.90
27795;DHT22;15176;50.844;4.412;2022-12-18T14:19:46;7.30;72.60
27795;DHT22;15176;50.844;4.412;2022-12-18T14:22:24;7.10;69.70
27795;DHT22;15176;50.844;4.412;2022-12-18T14:28:02;7.20;71.10
27795;DHT22;15176;50.844;4.412;2022-12-18T14:30:32;7.80;71.90
27795;DHT22;15176;50.844;4.412;2022-12-18T14:33:10;7.90;69.10
27795;DHT22;15176;50.844;4.412;2022-12-18T14:35:43;8.30;67.80
27795;DHT22;15176;50.844;4.412;2022-12-18T14:40:56;8.40;66.20
27795;DHT22;15176;50.844;4.412;2022-12-18T14:43:25;7.70;65.90
27795;DHT22;15176;50.844;4.412;2022-12-18T14:45:51;7.60;68.90
27795;DHT22;15176;50.844;4.412;2022-12-18T14:48:36;7.60;68.00
27795;DHT22;15176;50.844;4.412;2022-12-18T14:53:40;7.10;69.10
27795;DHT22;15176;50.844;4.412;2022-12-18T14:56:24;7.60;69.10
27795;DHT22;15176;50.844;4.412;2022-12-18T14:59:14;8.30;73.80
27795;DHT22;15176;50.844;4.412;2022-12-18T15:01:45;8.90;67.30
27795;DHT22;15176;50.844;4.412;2022-12-18T15:04:34;8.60;65.40
27795;DHT22;15176;50.844;4.412;2022-12-18T15:07:08;8.10;65.90
27795;DHT22;15176;50.844;4.412;2022-12-18T15:09:35;7.90;67.90
27795;DHT22;15176;50.844;4.412;2022-12-18T15:12:01;7.50;67.80
27795;DHT22;15176;50.844;4.412;2022-12-18T15:14:38;7.50;71.30
27795;DHT22;15176;50.844;4.412;2022-12-18T15:17:14;7.60;71.50
27795;DHT22;15176;50.844;4.412;2022-12-18T15:19:43;7.60;69.20
27795;DHT22;15176;50.844;4.412;2022-12-18T15:24:44;7.70;68.00
27795;DHT22;15176;50.844;4.412;2022-12-18T15:27:33;7.40;68.60
27795;DHT22;15176;50.844;4.412;2022-12-18T15:32:36;8.20;71.80
27795;DHT22;15176;50.844;4.412;2022-12-18T15:35:16;7.90;67.80
27795;DHT22;15176;50.844;4.412;2022-12-18T15:37:43;7.90;73.70
27795;DHT22;15176;50.844;4.412;2022-12-18T15:40:15;7.40;69.90
27795;DHT22;15176;50.844;4.412;2022-12-18T15:42:42;7.80;68.70
27795;DHT22;15176;50.844;4.412;2022-12-18T15:45:26;6.80;71.30
27795;DHT22;15176;50.844;4.412;2022-12-18T15:47:52;7.30;73.80
27795;DHT22;15176;50.844;4.412;2022-12-18T15:50:18;8.00;71.50
27795;DHT22;15176;50.844;4.412;2022-12-18T15:52:48;7.80;68.70
27795;DHT22;15176;50.844;4.412;2022-12-18T15:55:17;8.00;70.10
27795;DHT22;15176;50.844;4.412;2022-12-18T15:58:02;7.90;67.60
27795;DHT22;15176;50.844;4.412;2022-12-18T16:00:28;8.40;69.20
27795;DHT22;15176;50.844;4.412;2022-12-18T16:02:54;8.70;66.10
27795;DHT22;15176;50.844;4.412;2022-12-18T16:05:24;8.70;67.40
27795;DHT22;15176;50.844;4.412;2022-12-18T16:07:50;8.20;65.90
27795;DHT22;15176;50.844;4.412;2022-12-18T16:10:16;7.90;67.40
27795;DHT22;15176;50.844;4.412;2022-12-18T16:12:42;7.80;70.50
27795;DHT22;15176;50.844;4.412;2022-12-18T16:15:10;8.10;66.20
27795;DHT22;15176;50.844;4.412;2022-12-18T16:17:36;7.70;69.90
27795;DHT22;15176;50.844;4.412;2022-12-18T16:20:02;8.10;68.00
27795;DHT22;15176;50.844;4.412;2022-12-18T16:22:29;8.60;66.20
27795;DHT22;15176;50.844;4.412;2022-12-18T16:24:56;8.20;64.20
27795;DHT22;15176;50.844;4.412;2022-12-18T16:27:23;8.10;66.10
27795;DHT22;15176;50.844;4.412;2022-12-18T16:29:49;8.30;66.30
27795;DHT22;15176;50.844;4.412;2022-12-18T16:32:19;7.90;66.00
27795;DHT22;15176;50.844;4.412;2022-12-18T16:34:45;7.30;68.70
27795;DHT22;15176;50.844;4.412;2022-12-18T16:37:13;7.40;68.10
27795;DHT22;15176;50.844;4.412;2022-12-18T16:39:39;7.30;66.90
27795;DHT22;15176;50.844;4.412;2022-12-18T16:42:15;7.20;70.60
27795;DHT22;15176;50.844;4.412;2022-12-18T16:44:43;7.20;69.10
27795;DHT22;15176;50.844;4.412;2022-12-18T16:47:09;7.60;68.70
27795;DHT22;15176;50.844;4.412;2022-12-18T16:49:35;7.60;67.90
27795;DHT22;15176;50.844;4.412;2022-12-18T16:52:01;7.10;67.40
27795;DHT22;15176;50.844;4.412;2022-12-18T16:54:26;7.40;69.40
27795;DHT22;15176;50.844;4.412;2022-12-18T16:56:55;7.30;67.50
27795;DHT22;15176;50.844;4.412;2022-12-18T16:59:21;7.20;67.50
27795;DHT22;15176;50.844;4.412;2022-12-18T17:01:47;6.90;69.60
27795;DHT22;15176;50.844;4.412;2022-12-18T17:04:12;7.20;67.10
27795;DHT22;15176;50.844;4.412;2022-12-18T17:06:41;6.70;71.00
27795;DHT22;15176;50.844;4.412;2022-12-18T17:09:13;6.40;71.00
27795;DHT22;15176;50.844;4.412;2022-12-18T17:11:40;6.40;71.40
27795;DHT22;15176;50.844;4.412;2022-12-18T17:14:08;6.70;71.60
27795;DHT22;15176;50.844;4.412;2022-12-18T17:16:34;7.30;74.00
27795;DHT22;15176;50.844;4.412;2022-12-18T17:19:00;7.90;70.10
27795;DHT22;15176;50.844;4.412;2022-12-18T17:21:26;7.90;68.20
27795;DHT22;15176;50.844;4.412;2022-12-18T17:23:51;7.70;68.20
27795;DHT22;15176;50.844;4.412;2022-12-18T17:26:17;7.70;70.80
27795;DHT22;15176;50.844;4.412;2022-12-18T17:28:43;8.00;70.80
27795;DHT22;15176;50.844;4.412;2022-12-18T17:33:37;8.20;70.70
27795;DHT22;15176;50.844;4.412;2022-12-18T17:36:03;8.50;71.20
27795;DHT22;15176;50.844;4.412;2022-12-18T17:38:29;8.90;67.20
27795;DHT22;15176;50.844;4.412;2022-12-18T17:41:02;8.80;66.90
27795;DHT22;15176;50.844;4.412;2022-12-18T17:43:28;8.70;68.10
27795;DHT22;15176;50.844;4.412;2022-12-18T17:45:55;8.40;70.30
27795;DHT22;15176;50.844;4.412;2022-12-18T17:48:20;8.80;70.70
27795;DHT22;15176;50.844;4.412;2022-12-18T17:50:46;8.40;69.10
27795;DHT22;15176;50.844;4.412;2022-12-18T17:53:12;8.10;71.40
27795;DHT22;15176;50.844;4.412;2022-12-18T17:55:37;7.10;76.30
27795;DHT22;15176;50.844;4.412;2022-12-18T17:58:06;7.00;77.60
27795;DHT22;15176;50.844;4.412;2022-12-18T18:00:32;7.00;79.80